Time;durP1;ratioP1;P1;durP2;ratioP2;P2;SDS_P1;SDS_P2;PMS_P1;PMS_P2;Temp;Humidity;BMP_temperature;BMP_pressure;BME280_temperature;BME280_humidity;BME280_pressure;Samples;Min_cycle;Max_cycle;Signal;HPM_P1;HPM_P2
2021/09/02 00:01:03;;;;;;;3.92;2.83;;;18.40;73.30;;;;;;5031883;28;20705;-78
2021/09/02 00:03:28;;;;;;;5.00;3.33;;;18.40;73.30;;;;;;5032120;28;20037;-78
2021/09/02 00:05:54;;;;;;;5.30;3.55;;;18.40;73.40;;;;;;5031566;28;20033;-77
2021/09/02 00:08:19;;;;;;;5.32;3.70;;;18.30;73.40;;;;;;5030789;28;20396;-77
2021/09/02 00:10:45;;;;;;;4.85;3.17;;;18.30;73.60;;;;;;5031744;28;20141;-79
2021/09/02 00:13:10;;;;;;;5.38;3.33;;;18.30;73.50;;;;;;5032042;28;20033;-79
2021/09/02 00:15:36;;;;;;;5.60;3.55;;;18.30;73.50;;;;;;5031259;28;20056;-78
2021/09/02 00:18:02;;;;;;;5.63;3.78;;;18.40;73.60;;;;;;5031386;28;20025;-77
2021/09/02 00:20:28;;;;;;;4.55;3.30;;;18.30;73.50;;;;;;5029322;28;20144;-77
2021/09/02 00:22:54;;;;;;;4.80;2.97;;;18.40;73.50;;;;;;5025262;28;20116;-77
2021/09/02 00:25:20;;;;;;;4.32;3.10;;;18.30;73.50;;;;;;5031846;28;20137;-77
2021/09/02 00:27:45;;;;;;;5.63;3.50;;;18.30;73.60;;;;;;5030951;28;20037;-77
2021/09/02 00:30:11;;;;;;;6.20;4.15;;;18.30;73.60;;;;;;5030617;28;20028;-77
2021/09/02 00:32:37;;;;;;;5.82;3.88;;;18.30;73.60;;;;;;5032205;28;20030;-77
2021/09/02 00:35:04;;;;;;;5.35;3.60;;;18.30;73.70;;;;;;5032326;28;20018;-77
2021/09/02 00:37:30;;;;;;;5.78;4.03;;;18.30;73.80;;;;;;5024595;28;20034;-76
2021/09/02 00:39:55;;;;;;;5.68;3.42;;;18.20;73.80;;;;;;5031747;28;20028;-77
2021/09/02 00:42:21;;;;;;;6.28;3.58;;;18.20;73.90;;;;;;5031263;28;20051;-77
2021/09/02 00:44:47;;;;;;;5.35;3.72;;;18.20;74.00;;;;;;5031287;28;20025;-77
2021/09/02 00:47:17;;;;;;;6.15;3.50;;;18.20;74.30;;;;;;5030808;28;20076;-77
2021/09/02 00:49:43;;;;;;;5.07;3.35;;;18.20;74.30;;;;;;5031506;28;20033;-76
2021/09/02 00:52:12;;;;;;;4.88;3.33;;;18.20;74.40;;;;;;5032138;28;20022;-77
2021/09/02 00:54:40;;;;;;;4.38;3.42;;;18.10;74.40;;;;;;5031476;28;20021;-77
2021/09/02 00:57:09;;;;;;;5.25;3.60;;;18.10;74.50;;;;;;5031298;28;20030;-77
2021/09/02 00:59:35;;;;;;;4.65;3.25;;;18.10;74.50;;;;;;5031594;28;20064;-77
2021/09/02 01:02:00;;;;;;;4.90;3.63;;;18.10;74.60;;;;;;5032008;28;20056;-78
2021/09/02 01:04:26;;;;;;;5.13;3.35;;;18.10;74.60;;;;;;5031757;28;20048;-77
2021/09/02 01:06:52;;;;;;;5.15;3.50;;;18.00;74.60;;;;;;5030466;28;20175;-77
2021/09/02 01:09:19;;;;;;;6.65;4.15;;;18.00;74.70;;;;;;5063675;28;20022;-76
2021/09/02 01:11:45;;;;;;;5.32;3.40;;;18.00;74.70;;;;;;5030846;28;20025;-77
2021/09/02 01:14:17;;;;;;;6.28;3.65;;;18.00;74.80;;;;;;5031116;28;20033;-77
2021/09/02 01:16:50;;;;;;;5.93;3.65;;;18.00;74.90;;;;;;5029936;28;20029;-77
2021/09/02 01:19:18;;;;;;;6.30;3.78;;;17.90;75.00;;;;;;5031088;28;20033;-77
2021/09/02 01:21:44;;;;;;;5.20;4.28;;;17.90;75.00;;;;;;5030589;28;20815;-79
2021/09/02 01:24:10;;;;;;;5.13;4.03;;;17.80;75.00;;;;;;5029803;28;20063;-78
2021/09/02 01:26:36;;;;;;;5.30;3.90;;;17.80;75.10;;;;;;5030484;28;20017;-77
2021/09/02 01:29:03;;;;;;;6.57;4.18;;;17.80;75.20;;;;;;5030454;28;20040;-77
2021/09/02 01:31:29;;;;;;;4.88;3.80;;;17.80;75.20;;;;;;5031244;28;20025;-77
2021/09/02 01:33:55;;;;;;;4.38;3.40;;;17.80;75.30;;;;;;5030798;28;20082;-78
2021/09/02 01:36:20;;;;;;;6.95;4.13;;;17.80;75.30;;;;;;5030985;28;20025;-78
2021/09/02 01:38:46;;;;;;;5.60;3.28;;;17.70;75.20;;;;;;5030093;28;20048;-77
2021/09/02 01:41:11;;;;;;;6.15;3.75;;;17.80;75.30;;;;;;5031131;28;20060;-78
2021/09/02 01:43:40;;;;;;;5.80;3.97;;;17.80;75.30;;;;;;5030430;28;20495;-78
2021/09/02 01:46:06;;;;;;;6.40;3.70;;;17.80;75.40;;;;;;5028706;28;20040;-78
2021/09/02 01:48:33;;;;;;;6.28;3.80;;;17.70;75.40;;;;;;5030216;28;20034;-78
2021/09/02 01:50:59;;;;;;;8.48;4.38;;;17.70;75.40;;;;;;5030260;28;20488;-79
2021/09/02 01:53:24;;;;;;;7.40;4.38;;;17.70;75.50;;;;;;5030393;28;20065;-79
2021/09/02 01:55:51;;;;;;;6.40;3.72;;;17.60;75.60;;;;;;5030115;28;20021;-79
2021/09/02 01:58:17;;;;;;;5.00;3.25;;;17.60;75.70;;;;;;5030877;28;20456;-79
2021/09/02 02:00:42;;;;;;;6.57;3.83;;;17.60;75.80;;;;;;5030669;28;20113;-80
2021/09/02 02:03:11;;;;;;;5.90;3.50;;;17.60;75.70;;;;;;5031227;28;20037;-78
2021/09/02 02:05:37;;;;;;;4.68;3.47;;;17.60;75.80;;;;;;5031514;28;20053;-78
2021/09/02 02:08:03;;;;;;;5.00;3.65;;;17.60;75.80;;;;;;5030121;28;20080;-78
2021/09/02 02:10:30;;;;;;;5.35;3.28;;;17.60;75.70;;;;;;5029875;28;20030;-77
2021/09/02 02:12:57;;;;;;;4.68;3.30;;;17.60;75.70;;;;;;5027882;28;20477;-77
2021/09/02 02:15:24;;;;;;;6.13;3.50;;;17.60;75.70;;;;;;5029764;28;20025;-78
2021/09/02 02:17:50;;;;;;;8.85;3.92;;;17.60;75.70;;;;;;5030528;28;20033;-78
2021/09/02 02:20:16;;;;;;;5.38;3.58;;;17.60;75.80;;;;;;5030092;28;20022;-79
2021/09/02 02:22:43;;;;;;;5.43;3.65;;;17.60;75.90;;;;;;5030859;28;20026;-80
2021/09/02 02:25:10;;;;;;;5.82;3.70;;;17.60;76.00;;;;;;5030390;28;20025;-79
2021/09/02 02:27:36;;;;;;;7.25;4.45;;;17.60;76.00;;;;;;5033610;28;20030;-80
2021/09/02 02:30:03;;;;;;;5.10;3.60;;;17.50;75.90;;;;;;5034089;28;20021;-78
2021/09/02 02:32:29;;;;;;;3.85;3.17;;;17.50;75.90;;;;;;5034180;28;20026;-79
2021/09/02 02:34:54;;;;;;;5.28;3.75;;;17.50;75.90;;;;;;5034477;28;20108;-79
2021/09/02 02:37:20;;;;;;;6.10;3.78;;;17.50;76.00;;;;;;5033819;28;20018;-77
2021/09/02 02:39:46;;;;;;;6.90;3.83;;;17.40;76.20;;;;;;5034857;28;20037;-78
2021/09/02 02:42:11;;;;;;;5.63;3.55;;;17.40;76.20;;;;;;5033700;28;20026;-79
2021/09/02 02:44:38;;;;;;;6.18;3.92;;;17.40;76.30;;;;;;5033690;28;20035;-79
2021/09/02 02:47:07;;;;;;;5.15;3.70;;;17.40;76.40;;;;;;5032887;28;20040;-77
2021/09/02 02:49:33;;;;;;;5.57;3.63;;;17.40;76.40;;;;;;5029712;28;21975;-78
2021/09/02 02:51:58;;;;;;;5.60;3.72;;;17.40;76.40;;;;;;5025734;28;20025;-79
2021/09/02 02:54:24;;;;;;;4.20;2.83;;;17.40;76.50;;;;;;5033228;28;20035;-78
2021/09/02 02:56:49;;;;;;;5.22;3.53;;;17.50;76.50;;;;;;5033291;28;20421;-78
2021/09/02 02:59:15;;;;;;;4.65;3.33;;;17.50;76.50;;;;;;5034411;28;20484;-77
2021/09/02 03:01:40;;;;;;;5.50;3.67;;;17.50;76.40;;;;;;5034574;28;20714;-78
2021/09/02 03:04:06;;;;;;;5.25;3.63;;;17.50;76.40;;;;;;5033255;28;20040;-77
2021/09/02 03:06:31;;;;;;;6.60;4.30;;;17.50;76.50;;;;;;5033608;28;20418;-77
2021/09/02 03:08:59;;;;;;;5.45;3.72;;;17.50;76.50;;;;;;5033144;28;20488;-76
2021/09/02 03:11:25;;;;;;;4.93;3.53;;;17.40;76.60;;;;;;5031718;28;20105;-78
2021/09/02 03:13:50;;;;;;;5.57;4.07;;;17.50;76.70;;;;;;5032970;28;20105;-78
2021/09/02 03:16:16;;;;;;;6.82;3.97;;;17.40;76.70;;;;;;5032848;28;20481;-78
2021/09/02 03:18:41;;;;;;;5.78;4.07;;;17.40;76.80;;;;;;5033266;28;20030;-78
2021/09/02 03:21:07;;;;;;;6.38;4.30;;;17.40;76.80;;;;;;5033975;28;20052;-79
2021/09/02 03:23:32;;;;;;;6.03;4.05;;;17.40;76.90;;;;;;5033974;28;20068;-78
2021/09/02 03:25:58;;;;;;;7.15;3.85;;;17.30;76.90;;;;;;5032682;28;20032;-78
2021/09/02 03:28:23;;;;;;;6.25;4.43;;;17.40;77.00;;;;;;5033365;28;20048;-77
2021/09/02 03:30:49;;;;;;;6.63;3.95;;;17.30;77.00;;;;;;5033351;28;20017;-77
2021/09/02 03:33:15;;;;;;;7.60;4.25;;;17.30;77.10;;;;;;5033333;28;20025;-77
2021/09/02 03:35:40;;;;;;;6.72;3.88;;;17.40;77.10;;;;;;5033082;28;20022;-77
2021/09/02 03:38:06;;;;;;;5.18;3.33;;;17.40;77.10;;;;;;5032350;28;20384;-78
2021/09/02 03:40:32;;;;;;;5.80;4.22;;;17.40;77.10;;;;;;5032092;28;20025;-78
2021/09/02 03:42:58;;;;;;;5.68;4.50;;;17.40;77.10;;;;;;5031958;28;20036;-78
2021/09/02 03:45:23;;;;;;;7.03;4.30;;;17.40;77.10;;;;;;5032732;28;20017;-78
2021/09/02 03:47:50;;;;;;;5.72;4.15;;;17.40;77.20;;;;;;5030372;28;20082;-78
2021/09/02 03:50:16;;;;;;;8.65;4.30;;;17.40;77.40;;;;;;5032102;28;20024;-78
2021/09/02 03:52:42;;;;;;;5.63;3.67;;;17.30;77.30;;;;;;5032271;28;20037;-79
2021/09/02 03:55:12;;;;;;;4.97;3.92;;;17.40;77.30;;;;;;5032384;28;20362;-79
2021/09/02 03:57:38;;;;;;;6.05;4.20;;;17.40;77.30;;;;;;5032080;28;20472;-79
2021/09/02 04:00:06;;;;;;;6.60;4.22;;;17.40;77.20;;;;;;5032853;28;20368;-80
2021/09/02 04:02:32;;;;;;;5.28;3.78;;;17.30;77.10;;;;;;5030844;28;20021;-78
2021/09/02 04:04:58;;;;;;;5.90;3.58;;;17.30;77.20;;;;;;5031002;28;20029;-79
2021/09/02 04:07:23;;;;;;;6.00;3.55;;;17.30;77.20;;;;;;5031092;28;20488;-80
2021/09/02 04:09:49;;;;;;;5.65;3.20;;;17.30;77.20;;;;;;5032820;28;20060;-79
2021/09/02 04:12:15;;;;;;;7.35;5.03;;;17.30;77.80;;;;;;5031659;28;20037;-79
2021/09/02 04:14:40;;;;;;;9.32;5.38;;;17.20;77.40;;;;;;5032783;28;20496;-80
2021/09/02 04:17:06;;;;;;;11.95;7.75;;;17.20;77.80;;;;;;5030688;28;20026;-79
2021/09/02 04:19:32;;;;;;;9.80;6.20;;;17.00;78.00;;;;;;5032064;28;20034;-79
2021/09/02 04:21:58;;;;;;;9.52;5.70;;;16.90;78.50;;;;;;5031383;28;20056;-79
2021/09/02 04:24:23;;;;;;;8.57;5.13;;;16.80;78.80;;;;;;5031860;28;20025;-79
2021/09/02 04:26:49;;;;;;;8.02;5.05;;;16.80;78.90;;;;;;5031858;28;20033;-79
2021/09/02 04:29:14;;;;;;;8.77;5.30;;;16.80;78.90;;;;;;5032202;28;20057;-79
2021/09/02 04:31:40;;;;;;;7.47;4.55;;;16.80;78.90;;;;;;5030181;28;20030;-79
2021/09/02 04:34:05;;;;;;;8.38;5.07;;;16.90;78.70;;;;;;5032122;28;20084;-79
2021/09/02 04:36:31;;;;;;;8.40;4.85;;;16.90;78.60;;;;;;5031088;28;20030;-79
2021/09/02 04:38:56;;;;;;;8.50;4.95;;;16.90;78.60;;;;;;5063880;28;20075;-79
2021/09/02 04:41:22;;;;;;;9.00;4.95;;;16.90;78.80;;;;;;5028892;28;20025;-78
2021/09/02 04:43:50;;;;;;;8.27;4.57;;;16.90;78.80;;;;;;5030618;28;20112;-78
2021/09/02 04:46:16;;;;;;;8.73;5.47;;;16.90;78.90;;;;;;5031466;28;20071;-81
2021/09/02 04:48:41;;;;;;;7.53;4.50;;;16.80;79.00;;;;;;5031514;28;20076;-78
2021/09/02 04:51:07;;;;;;;7.70;3.97;;;16.90;79.00;;;;;;5029493;28;20029;-77
2021/09/02 04:53:32;;;;;;;8.25;4.82;;;16.90;78.90;;;;;;5030370;28;20127;-78
2021/09/02 04:55:58;;;;;;;8.75;5.03;;;16.90;78.80;;;;;;5029766;28;20022;-79
2021/09/02 04:58:23;;;;;;;10.10;4.93;;;16.90;79.50;;;;;;5031090;28;20049;-79
2021/09/02 05:00:49;;;;;;;7.95;5.20;;;16.80;79.10;;;;;;5029953;28;20026;-79
2021/09/02 05:03:14;;;;;;;6.75;4.85;;;16.70;79.40;;;;;;5022617;28;20026;-78
2021/09/02 05:05:40;;;;;;;7.30;4.35;;;16.70;79.40;;;;;;5024628;28;20026;-78
2021/09/02 05:08:06;;;;;;;7.95;4.82;;;16.80;79.30;;;;;;5025256;28;20041;-79
2021/09/02 05:10:32;;;;;;;10.25;5.45;;;16.80;79.20;;;;;;5029462;28;20048;-78
2021/09/02 05:12:58;;;;;;;7.20;5.38;;;16.80;79.30;;;;;;5026460;28;20026;-79
2021/09/02 05:15:24;;;;;;;7.70;4.57;;;16.80;79.50;;;;;;5028871;28;20021;-80
2021/09/02 05:17:49;;;;;;;9.10;5.13;;;16.70;79.50;;;;;;5025863;28;20052;-78
2021/09/02 05:20:16;;;;;;;6.57;4.18;;;16.70;79.50;;;;;;5028778;28;20074;-78
2021/09/02 05:22:43;;;;;;;7.32;4.00;;;16.60;79.60;;;;;;5024838;28;20049;-78
2021/09/02 05:25:09;;;;;;;7.55;4.25;;;16.60;79.60;;;;;;5025459;28;20525;-80
2021/09/02 05:27:35;;;;;;;5.35;3.20;;;16.60;79.60;;;;;;5028393;28;20049;-80
2021/09/02 05:30:01;;;;;;;3.88;2.70;;;16.70;79.50;;;;;;5030868;28;20048;-81
2021/09/02 05:32:26;;;;;;;5.63;3.40;;;16.70;79.20;;;;;;5017083;28;20504;-80
2021/09/02 05:34:52;;;;;;;6.50;3.80;;;16.80;79.10;;;;;;5029692;28;20025;-80
2021/09/02 05:37:17;;;;;;;5.82;3.17;;;16.80;79.00;;;;;;5027412;28;20602;-82
2021/09/02 05:39:43;;;;;;;7.95;4.30;;;16.80;78.90;;;;;;5023488;28;20357;-80
2021/09/02 05:42:10;;;;;;;8.98;4.05;;;16.70;79.00;;;;;;5030235;28;20025;-80
2021/09/02 05:44:36;;;;;;;5.68;3.00;;;16.70;79.20;;;;;;5029561;28;21387;-80
2021/09/02 05:47:02;;;;;;;6.53;3.50;;;16.80;79.00;;;;;;5029490;28;20033;-80
2021/09/02 05:49:27;;;;;;;7.60;3.83;;;16.90;78.80;;;;;;5029012;28;20033;-79
2021/09/02 05:51:53;;;;;;;6.75;3.58;;;16.80;78.70;;;;;;5029880;28;20541;-79
2021/09/02 05:54:19;;;;;;;5.90;3.65;;;16.80;78.70;;;;;;5026490;28;20049;-79
2021/09/02 05:56:44;;;;;;;5.43;3.55;;;16.70;78.70;;;;;;5027977;28;20040;-79
2021/09/02 05:59:11;;;;;;;7.47;4.00;;;16.70;78.70;;;;;;5029344;28;20485;-79
2021/09/02 06:01:36;;;;;;;7.55;3.78;;;16.70;78.80;;;;;;5029707;28;20043;-79
2021/09/02 06:04:02;;;;;;;6.03;3.15;;;16.70;78.90;;;;;;5028953;28;20028;-80
2021/09/02 06:06:28;;;;;;;5.07;3.25;;;16.70;78.70;;;;;;5036738;28;20423;-80
2021/09/02 06:08:53;;;;;;;6.55;3.70;;;16.80;78.50;;;;;;5028559;28;20045;-81
2021/09/02 06:11:19;;;;;;;10.15;3.13;;;16.80;78.50;;;;;;5019998;28;20079;-80
2021/09/02 06:13:44;;;;;;;5.38;3.47;;;16.90;78.30;;;;;;5018311;28;20084;-79
2021/09/02 06:16:10;;;;;;;5.43;3.05;;;16.90;78.00;;;;;;5023391;28;20040;-81
2021/09/02 06:18:35;;;;;;;5.93;3.65;;;16.90;77.80;;;;;;5030932;28;20642;-83
2021/09/02 06:21:01;;;;;;;5.45;3.60;;;17.10;77.60;;;;;;5020835;28;20065;-81
2021/09/02 06:23:27;;;;;;;3.35;2.55;;;17.60;77.00;;;;;;5025047;28;20049;-82
2021/09/02 06:25:53;;;;;;;6.05;3.00;;;18.60;74.70;;;;;;5029278;28;20033;-82
2021/09/02 06:28:19;;;;;;;4.43;2.25;;;19.10;72.20;;;;;;5029860;28;20087;-84
2021/09/02 06:30:44;;;;;;;3.50;2.20;;;19.90;70.80;;;;;;5030160;28;20041;-82
2021/09/02 06:33:10;;;;;;;5.15;2.80;;;20.80;67.90;;;;;;5026176;28;20499;-82
2021/09/02 06:35:36;;;;;;;3.90;2.63;;;20.60;66.00;;;;;;5021210;28;20060;-85
2021/09/02 06:38:04;;;;;;;5.05;2.80;;;20.60;65.90;;;;;;5019556;28;20482;-86
2021/09/02 06:40:30;;;;;;;4.53;3.00;;;20.60;65.10;;;;;;5024082;28;20434;-85
2021/09/02 06:42:55;;;;;;;3.63;2.42;;;20.60;65.10;;;;;;5032011;28;20026;-83
2021/09/02 06:45:21;;;;;;;3.85;2.40;;;20.70;64.80;;;;;;5030026;28;20021;-83
2021/09/02 06:47:47;;;;;;;5.22;3.00;;;20.50;64.60;;;;;;5023508;28;20041;-84
2021/09/02 06:50:14;;;;;;;4.35;2.40;;;20.30;64.40;;;;;;5026632;28;20400;-83
2021/09/02 06:52:41;;;;;;;3.63;2.50;;;20.70;64.20;;;;;;5027169;28;20037;-85
2021/09/02 06:55:07;;;;;;;4.95;2.38;;;21.50;62.20;;;;;;5029522;28;20028;-84
2021/09/02 06:57:34;;;;;;;2.97;2.10;;;22.30;60.70;;;;;;5027119;28;20025;-84
2021/09/02 06:59:59;;;;;;;2.33;1.80;;;23.50;59.00;;;;;;5029783;28;20140;-87
2021/09/02 07:02:25;;;;;;;4.57;2.25;;;24.30;57.10;;;;;;5029115;28;20048;-84
2021/09/02 07:04:51;;;;;;;3.50;2.08;;;25.10;55.20;;;;;;5030463;28;20034;-86
2021/09/02 07:07:16;;;;;;;2.53;1.90;;;25.00;53.90;;;;;;5027346;28;20404;-86
2021/09/02 07:09:42;;;;;;;4.13;2.17;;;25.50;53.90;;;;;;5028736;28;20056;-84
2021/09/02 07:12:07;;;;;;;5.75;2.55;;;25.60;52.20;;;;;;5028829;28;20052;-83
2021/09/02 07:14:33;;;;;;;3.47;2.50;;;25.60;51.20;;;;;;5033005;28;20037;-83
2021/09/02 07:16:58;;;;;;;3.67;2.22;;;25.50;51.20;;;;;;5061868;28;20022;-85
2021/09/02 07:19:24;;;;;;;4.43;2.30;;;25.80;50.70;;;;;;5032908;28;20421;-82
2021/09/02 07:21:50;;;;;;;2.55;1.50;;;25.90;50.60;;;;;;5032620;28;20527;-86
2021/09/02 07:24:18;;;;;;;3.60;1.40;;;26.80;50.70;;;;;;5032727;28;20029;-80
2021/09/02 07:26:44;;;;;;;3.17;1.60;;;27.40;49.80;;;;;;5031592;28;20384;-81
2021/09/02 07:29:10;;;;;;;2.50;1.70;;;27.90;48.90;;;;;;5032625;28;20044;-85
2021/09/02 07:31:37;;;;;;;3.30;1.95;;;28.50;47.90;;;;;;5030568;28;20498;-82
2021/09/02 07:34:02;;;;;;;3.10;1.90;;;28.40;46.30;;;;;;5032545;28;20155;-78
2021/09/02 07:36:29;;;;;;;3.65;2.00;;;28.20;46.30;;;;;;5030957;28;20105;-84
2021/09/02 07:38:54;;;;;;;4.07;2.30;;;28.10;46.10;;;;;;5032365;28;20167;-81
2021/09/02 07:41:20;;;;;;;3.60;1.75;;;28.10;44.60;;;;;;5031717;28;20512;-79
2021/09/02 07:43:46;;;;;;;2.92;1.60;;;28.20;45.70;;;;;;5031970;28;20501;-80
2021/09/02 07:46:11;;;;;;;2.75;1.95;;;28.70;44.80;;;;;;5031381;28;20464;-79
2021/09/02 07:48:37;;;;;;;1.90;1.40;;;28.50;44.70;;;;;;5031831;28;20112;-82
2021/09/02 07:51:03;;;;;;;1.33;1.20;;;28.80;44.80;;;;;;5031810;28;20117;-80
2021/09/02 07:53:30;;;;;;;2.58;1.50;;;29.20;44.60;;;;;;5031922;28;20507;-80
2021/09/02 07:55:56;;;;;;;2.28;1.60;;;28.80;43.90;;;;;;5031074;28;20022;-82
2021/09/02 07:58:21;;;;;;;3.15;2.25;;;27.70;46.20;;;;;;5031991;28;20468;-85
2021/09/02 08:00:48;;;;;;;3.50;1.90;;;27.80;45.20;;;;;;5030738;28;20435;-83
2021/09/02 08:03:14;;;;;;;3.90;1.40;;;27.80;45.00;;;;;;5030196;28;20022;-84
2021/09/02 08:05:39;;;;;;;3.42;1.80;;;28.10;45.40;;;;;;5029501;28;20375;-86
2021/09/02 08:08:06;;;;;;;2.55;1.35;;;28.40;44.40;;;;;;5030122;28;20075;-84
2021/09/02 08:10:32;;;;;;;4.03;2.15;;;28.70;44.50;;;;;;5041725;28;20017;-84
2021/09/02 08:12:58;;;;;;;2.60;1.88;;;28.30;43.70;;;;;;5034369;28;20041;-81
2021/09/02 08:15:24;;;;;;;3.58;2.03;;;27.10;45.60;;;;;;5031308;28;20404;-81
2021/09/02 08:17:50;;;;;;;3.70;2.13;;;27.50;45.90;;;;;;5030632;28;20025;-82
2021/09/02 08:20:17;;;;;;;3.50;2.15;;;27.70;45.00;;;;;;5042684;28;20057;-81
2021/09/02 08:22:43;;;;;;;2.53;1.55;;;28.40;44.30;;;;;;5035119;28;20024;-81
2021/09/02 08:25:11;;;;;;;4.03;2.17;;;28.80;44.40;;;;;;5047135;28;20121;-80
2021/09/02 08:27:37;;;;;;;4.75;2.65;;;28.80;43.40;;;;;;5029886;28;20120;-81
2021/09/02 08:30:04;;;;;;;5.20;2.78;;;28.50;43.50;;;;;;5033684;28;20025;-80
2021/09/02 08:32:29;;;;;;;6.30;3.10;;;28.50;43.20;;;;;;5035602;28;20033;-80
2021/09/02 08:34:58;;;;;;;4.53;2.90;;;28.30;43.20;;;;;;5036026;28;20424;-82
2021/09/02 08:37:24;;;;;;;4.82;3.10;;;27.80;43.50;;;;;;5030290;28;20040;-79
2021/09/02 08:39:50;;;;;;;4.28;2.63;;;27.80;43.80;;;;;;5032442;28;20029;-81
2021/09/02 08:42:16;;;;;;;4.72;2.53;;;27.30;44.30;;;;;;5041397;28;20040;-78
2021/09/02 08:44:43;;;;;;;5.28;3.33;;;26.30;45.70;;;;;;5032342;28;20014;-81
2021/09/02 08:47:10;;;;;;;4.70;2.95;;;25.20;47.50;;;;;;5030432;28;20026;-79
2021/09/02 08:49:35;;;;;;;5.10;3.10;;;24.40;49.60;;;;;;5030226;28;20118;-79
2021/09/02 08:52:01;;;;;;;4.93;2.85;;;23.50;51.20;;;;;;5029697;28;20161;-79
2021/09/02 08:54:27;;;;;;;6.10;3.42;;;23.10;52.70;;;;;;5029911;28;20582;-80
2021/09/02 08:56:52;;;;;;;3.95;2.58;;;22.80;53.60;;;;;;5024724;28;20033;-80
2021/09/02 08:59:18;;;;;;;5.25;2.78;;;22.60;54.30;;;;;;5033137;28;20373;-79
2021/09/02 09:01:50;;;;;;;6.28;3.58;;;22.60;54.80;;;;;;5029985;28;20400;-81
2021/09/02 09:04:16;;;;;;;4.07;2.65;;;22.60;55.10;;;;;;5030171;28;20559;-79
2021/09/02 09:06:42;;;;;;;5.28;2.85;;;22.60;55.20;;;;;;5030323;28;20029;-79
2021/09/02 09:09:15;;;;;;;4.53;2.70;;;22.50;55.20;;;;;;5028335;28;20029;-82
2021/09/02 09:11:49;;;;;;;6.68;4.18;;;22.60;55.30;;;;;;5029264;28;20014;-81
2021/09/02 09:14:23;;;;;;;4.80;2.83;;;22.50;54.90;;;;;;5028424;28;20503;-83
2021/09/02 09:16:54;;;;;;;4.22;2.30;;;22.50;55.50;;;;;;5027103;28;20041;-81
2021/09/02 09:19:49;;;;;;;6.20;3.58;;;22.40;55.50;;;;;;5030835;28;20029;-82
2021/09/02 09:22:16;;;;;;;5.68;3.40;;;22.20;55.60;;;;;;5025213;28;20530;-80
2021/09/02 09:24:47;;;;;;;6.57;3.30;;;22.10;55.70;;;;;;5030685;28;20395;-81
2021/09/02 09:27:14;;;;;;;5.10;2.88;;;21.90;55.80;;;;;;5030950;28;20059;-80
2021/09/02 09:29:40;;;;;;;6.38;2.78;;;21.70;55.90;;;;;;5027062;28;20033;-82
2021/09/02 09:32:14;;;;;;;5.55;3.33;;;21.60;56.30;;;;;;5030430;28;20099;-81
2021/09/02 09:34:51;;;;;;;6.60;4.05;;;21.50;56.20;;;;;;5029368;28;20033;-81
2021/09/02 09:37:18;;;;;;;6.18;3.20;;;21.40;56.00;;;;;;5027827;28;20488;-81
2021/09/02 09:39:44;;;;;;;4.82;2.47;;;21.30;56.40;;;;;;5030950;28;20434;-85
2021/09/02 09:42:09;;;;;;;6.68;2.40;;;21.40;56.70;;;;;;5030062;28;20033;-82
2021/09/02 09:44:38;;;;;;;3.78;2.45;;;21.60;56.90;;;;;;5029628;28;20029;-82
2021/09/02 09:47:07;;;;;;;6.15;3.20;;;21.60;56.90;;;;;;5028718;28;20032;-83
2021/09/02 09:50:09;;;;;;;6.07;3.42;;;21.70;56.80;;;;;;5034410;28;20377;-83
2021/09/02 09:52:41;;;;;;;5.60;3.17;;;21.80;56.50;;;;;;4992654;28;20095;-82
2021/09/02 09:55:11;;;;;;;3.72;2.42;;;22.00;56.30;;;;;;5030248;28;20086;-80
2021/09/02 09:57:39;;;;;;;5.25;2.70;;;22.10;56.10;;;;;;5028734;28;20033;-83
2021/09/02 10:00:16;;;;;;;4.82;3.15;;;22.30;56.00;;;;;;5029508;28;20083;-80
2021/09/02 10:02:44;;;;;;;6.10;3.63;;;22.30;55.60;;;;;;5028646;28;20026;-82
2021/09/02 10:05:12;;;;;;;6.78;3.67;;;22.30;55.80;;;;;;5030143;28;20657;-82
2021/09/02 10:07:40;;;;;;;4.75;2.80;;;22.30;55.50;;;;;;5029032;28;20698;-82
2021/09/02 10:10:09;;;;;;;6.20;3.17;;;22.30;55.60;;;;;;5029372;28;20037;-85
2021/09/02 10:12:35;;;;;;;3.85;2.08;;;22.30;55.80;;;;;;5036647;28;20167;-82
2021/09/02 10:15:08;;;;;;;5.72;2.40;;;22.40;55.80;;;;;;5029090;28;20018;-81
2021/09/02 10:17:36;;;;;;;3.42;1.77;;;22.60;55.80;;;;;;5028500;28;20018;-82
2021/09/02 10:20:10;;;;;;;2.83;2.03;;;22.80;55.60;;;;;;5025173;28;20018;-82
2021/09/02 10:22:36;;;;;;;3.78;2.05;;;22.80;55.20;;;;;;5025403;28;20053;-81
2021/09/02 10:25:04;;;;;;;3.78;2.22;;;22.80;55.30;;;;;;5025561;28;20120;-81
2021/09/02 10:27:34;;;;;;;3.70;2.38;;;22.80;55.00;;;;;;5027517;28;20049;-81
2021/09/02 10:29:59;;;;;;;4.05;2.47;;;22.80;54.80;;;;;;5025787;28;20036;-82
2021/09/02 10:32:28;;;;;;;4.78;2.90;;;22.90;54.70;;;;;;5029702;28;20017;-83
2021/09/02 10:35:02;;;;;;;3.55;2.33;;;22.90;54.50;;;;;;5028132;28;20036;-81
2021/09/02 10:37:49;;;;;;;3.63;2.40;;;23.00;54.60;;;;;;5028996;28;20163;-82
2021/09/02 10:40:17;;;;;;;3.20;2.30;;;23.00;54.40;;;;;;5025486;28;20525;-81
2021/09/02 10:42:52;;;;;;;2.80;2.38;;;23.10;54.50;;;;;;5027824;28;20157;-81
2021/09/02 10:45:38;;;;;;;3.80;1.95;;;23.10;54.50;;;;;;5029045;28;20059;-81
2021/09/02 10:48:08;;;;;;;5.53;2.90;;;23.20;54.30;;;;;;5027808;28;20037;-81
2021/09/02 10:50:40;;;;;;;4.50;2.50;;;23.20;53.90;;;;;;5032603;28;20435;-83
2021/09/02 10:53:12;;;;;;;3.28;2.13;;;23.10;54.20;;;;;;5064338;28;20029;-82
2021/09/02 10:55:49;;;;;;;3.70;2.50;;;23.20;54.40;;;;;;5033681;28;20060;-81
2021/09/02 10:58:40;;;;;;;5.63;3.47;;;23.30;53.90;;;;;;5033901;28;20064;-84
2021/09/02 11:01:21;;;;;;;4.53;3.10;;;23.20;53.30;;;;;;5033718;28;20061;-81
2021/09/02 11:03:47;;;;;;;6.03;3.25;;;23.10;53.00;;;;;;5032693;28;20037;-82
2021/09/02 11:06:13;;;;;;;5.07;3.15;;;23.00;52.40;;;;;;5033999;28;20100;-80
2021/09/02 11:08:40;;;;;;;4.30;1.95;;;22.90;52.60;;;;;;5033877;28;20037;-80
2021/09/02 11:11:12;;;;;;;4.47;2.63;;;23.10;52.90;;;;;;5032727;28;20037;-79
2021/09/02 11:13:39;;;;;;;5.35;3.38;;;23.20;53.00;;;;;;5032220;28;20112;-80
2021/09/02 11:16:14;;;;;;;5.40;3.28;;;23.30;52.70;;;;;;5030041;28;20048;-81
2021/09/02 11:18:43;;;;;;;4.90;3.08;;;23.40;52.30;;;;;;5032244;28;20025;-80
2021/09/02 11:21:26;;;;;;;6.13;3.13;;;23.30;52.10;;;;;;5031863;28;20140;-81
2021/09/02 11:24:00;;;;;;;4.93;2.60;;;23.20;52.10;;;;;;5029313;28;20057;-83
2021/09/02 11:26:40;;;;;;;6.20;3.03;;;23.30;52.40;;;;;;5030441;28;20183;-82
2021/09/02 11:29:07;;;;;;;4.53;3.20;;;23.50;52.20;;;;;;5029994;28;20033;-82
2021/09/02 11:31:34;;;;;;;3.97;2.80;;;23.50;51.70;;;;;;5031784;28;20030;-83
2021/09/02 11:34:00;;;;;;;2.97;2.05;;;23.40;51.70;;;;;;5031504;28;20597;-85
2021/09/02 11:36:27;;;;;;;4.00;2.40;;;23.40;52.10;;;;;;5032469;28;20164;-86
2021/09/02 11:39:08;;;;;;;3.17;2.40;;;23.50;52.20;;;;;;5035985;28;20054;-86
2021/09/02 11:41:35;;;;;;;5.03;2.78;;;23.50;52.20;;;;;;5033642;28;20029;-85
2021/09/02 11:44:01;;;;;;;4.72;3.33;;;23.50;52.00;;;;;;5029159;28;20029;-83
2021/09/02 11:46:27;;;;;;;4.15;2.45;;;23.30;51.70;;;;;;5027981;28;20539;-81
2021/09/02 11:48:55;;;;;;;5.35;3.00;;;23.20;52.40;;;;;;5030879;28;20033;-81
2021/09/02 11:51:31;;;;;;;6.63;3.78;;;23.20;52.60;;;;;;5031524;28;20483;-79
2021/09/02 11:54:03;;;;;;;5.55;3.40;;;23.20;52.10;;;;;;5031461;28;20037;-81
2021/09/02 11:56:30;;;;;;;4.47;3.03;;;23.10;52.30;;;;;;5030846;28;20045;-83
2021/09/02 11:58:57;;;;;;;6.30;3.72;;;23.30;52.10;;;;;;5031940;28;20029;-82
2021/09/02 12:01:23;;;;;;;5.15;3.20;;;23.10;51.80;;;;;;5030905;28;20022;-83
2021/09/02 12:03:52;;;;;;;5.75;3.53;;;23.00;51.90;;;;;;5031633;28;20123;-82
2021/09/02 12:06:29;;;;;;;3.85;2.75;;;23.00;52.70;;;;;;5030785;28;20033;-84
2021/09/02 12:08:58;;;;;;;5.68;3.25;;;23.00;52.20;;;;;;5030892;28;20120;-80
2021/09/02 12:11:24;;;;;;;5.47;3.13;;;23.00;52.60;;;;;;5028273;28;20100;-78
2021/09/02 12:13:52;;;;;;;4.30;2.63;;;23.10;52.50;;;;;;5031641;28;20025;-80
2021/09/02 12:16:18;;;;;;;5.97;2.90;;;23.20;52.40;;;;;;5031529;28;20512;-82
2021/09/02 12:18:46;;;;;;;6.30;3.72;;;23.30;52.30;;;;;;5030368;28;20480;-83
2021/09/02 12:21:21;;;;;;;5.38;3.55;;;23.40;52.10;;;;;;5030770;28;20064;-83
2021/09/02 12:23:57;;;;;;;4.80;2.60;;;23.20;51.30;;;;;;5027611;28;20035;-84
2021/09/02 12:26:25;;;;;;;3.13;1.88;;;23.30;52.00;;;;;;5035552;28;20017;-82
2021/09/02 12:28:53;;;;;;;5.63;3.50;;;23.50;51.90;;;;;;5030939;28;20037;-82
2021/09/02 12:31:23;;;;;;;3.88;2.50;;;23.60;51.50;;;;;;5028276;28;20029;-81
2021/09/02 12:34:01;;;;;;;3.20;2.30;;;23.80;51.60;;;;;;5025075;28;20047;-81
2021/09/02 12:36:28;;;;;;;3.95;2.70;;;24.10;51.50;;;;;;5026157;28;20026;-83
2021/09/02 12:38:55;;;;;;;2.90;2.10;;;24.10;51.10;;;;;;5034394;28;20021;-84
2021/09/02 12:41:23;;;;;;;4.63;2.70;;;24.30;51.10;;;;;;5031199;28;20100;-82
2021/09/02 12:44:10;;;;;;;3.17;2.10;;;24.60;50.90;;;;;;5034362;28;20053;-83
2021/09/02 12:47:13;;;;;;;4.13;2.20;;;24.80;50.50;;;;;;5027303;28;20025;-81